CheckWX is a tool to help pilots better visualize weather data.  It is not intended as a substitute for an official pre-flight weather briefing.

11:08:05 UTC

RKSO METAR
Osan Air Base Airport
South Korea
Current

1 hour ago

RKSO 200958Z 32008KT 7SM BKN040 OVC100 16/11 A2991 RMK AO2A SLP132
Observed
Apr-20 @ 09:58 UTC
Wind
  • 320° at 8 KTS
Visibility
11,265 meters
Flight Rules
VFR
Cloud Levels
  • Broken at 4,000' AGL
  • Overcast at 10,000' AGL
Temperature
16°C / 61°F
Dewpoint
11°C / 52°F
Humidity
72%
Altimeter
29.91" Hg
Pressure
1012.92 hPa
Previous

2 hours ago

RKSO 200858Z 31010KT 7SM FEW040 BKN100 BKN130 17/10 A2991 RMK AO2A SLP132 55002
Observed
Apr-20 @ 08:58 UTC
Wind
  • 310° at 10 KTS
Visibility
11,265 meters
Flight Rules
VFR
Cloud Levels
  • Few at 4,000' AGL
  • Broken at 10,000' AGL
  • Broken at 13,000' AGL
Temperature
17°C / 63°F
Dewpoint
10°C / 50°F
Humidity
64%
Altimeter
29.91" Hg
Pressure
1012.92 hPa
Previous

3 hours ago

RKSO 200758Z 30010KT 7SM FEW040 BKN100 19/09 A2991 RMK AO2A SLP132
Observed
Apr-20 @ 07:58 UTC
Wind
  • 300° at 10 KTS
Visibility
11,265 meters
Flight Rules
VFR
Cloud Levels
  • Few at 4,000' AGL
  • Broken at 10,000' AGL
Temperature
19°C / 66°F
Dewpoint
C / 48°F
Humidity
52%
Altimeter
29.91" Hg
Pressure
1012.92 hPa